sensor_id;sensor_type;location;lat;lon;timestamp;P1;durP1;ratioP1;P2;durP2;ratioP2
8632;SDS011;4354;49.832;10.746;2023-07-30T00:02:20;8.20;;;5.38;;
8632;SDS011;4354;49.832;10.746;2023-07-30T00:04:47;5.63;;;5.18;;
8632;SDS011;4354;49.832;10.746;2023-07-30T00:07:14;5.82;;;5.32;;
8632;SDS011;4354;49.832;10.746;2023-07-30T00:09:41;8.18;;;5.68;;
8632;SDS011;4354;49.832;10.746;2023-07-30T00:12:08;5.78;;;4.55;;
8632;SDS011;4354;49.832;10.746;2023-07-30T00:14:35;5.88;;;5.10;;
8632;SDS011;4354;49.832;10.746;2023-07-30T00:17:02;5.40;;;4.70;;
8632;SDS011;4354;49.832;10.746;2023-07-30T00:19:30;5.40;;;4.90;;
8632;SDS011;4354;49.832;10.746;2023-07-30T00:21:57;7.10;;;5.07;;
8632;SDS011;4354;49.832;10.746;2023-07-30T00:24:23;5.87;;;5.27;;
8632;SDS011;4354;49.832;10.746;2023-07-30T00:26:50;6.55;;;5.00;;
8632;SDS011;4354;49.832;10.746;2023-07-30T00:29:17;5.57;;;4.57;;
8632;SDS011;4354;49.832;10.746;2023-07-30T00:31:44;5.07;;;4.57;;
8632;SDS011;4354;49.832;10.746;2023-07-30T00:34:11;5.28;;;4.53;;
8632;SDS011;4354;49.832;10.746;2023-07-30T00:36:38;5.20;;;4.70;;
8632;SDS011;4354;49.832;10.746;2023-07-30T00:39:05;5.38;;;4.65;;
8632;SDS011;4354;49.832;10.746;2023-07-30T00:41:32;5.43;;;4.72;;
8632;SDS011;4354;49.832;10.746;2023-07-30T00:43:58;5.10;;;4.53;;
8632;SDS011;4354;49.832;10.746;2023-07-30T00:46:25;5.78;;;4.40;;
8632;SDS011;4354;49.832;10.746;2023-07-30T00:48:52;4.72;;;4.32;;
8632;SDS011;4354;49.832;10.746;2023-07-30T00:51:19;5.10;;;4.57;;
8632;SDS011;4354;49.832;10.746;2023-07-30T00:53:47;6.97;;;4.05;;
8632;SDS011;4354;49.832;10.746;2023-07-30T00:56:14;6.13;;;4.45;;
8632;SDS011;4354;49.832;10.746;2023-07-30T00:58:43;5.65;;;4.68;;
8632;SDS011;4354;49.832;10.746;2023-07-30T01:01:14;6.82;;;4.05;;
8632;SDS011;4354;49.832;10.746;2023-07-30T01:03:41;5.00;;;4.28;;
8632;SDS011;4354;49.832;10.746;2023-07-30T01:06:08;3.90;;;3.60;;
8632;SDS011;4354;49.832;10.746;2023-07-30T01:08:35;4.82;;;4.43;;
8632;SDS011;4354;49.832;10.746;2023-07-30T01:11:02;5.72;;;4.72;;
8632;SDS011;4354;49.832;10.746;2023-07-30T01:13:30;3.95;;;3.65;;
8632;SDS011;4354;49.832;10.746;2023-07-30T01:15:58;5.03;;;4.20;;
8632;SDS011;4354;49.832;10.746;2023-07-30T01:18:24;5.82;;;4.88;;
8632;SDS011;4354;49.832;10.746;2023-07-30T01:20:52;5.60;;;4.72;;
8632;SDS011;4354;49.832;10.746;2023-07-30T01:23:19;4.53;;;4.13;;
8632;SDS011;4354;49.832;10.746;2023-07-30T01:25:46;4.32;;;3.83;;
8632;SDS011;4354;49.832;10.746;2023-07-30T01:28:21;5.47;;;4.20;;
8632;SDS011;4354;49.832;10.746;2023-07-30T01:30:48;5.35;;;4.63;;
8632;SDS011;4354;49.832;10.746;2023-07-30T01:35:58;6.50;;;4.38;;
8632;SDS011;4354;49.832;10.746;2023-07-30T01:38:25;4.57;;;4.18;;
8632;SDS011;4354;49.832;10.746;2023-07-30T01:40:53;5.28;;;4.78;;
8632;SDS011;4354;49.832;10.746;2023-07-30T01:43:19;5.03;;;4.53;;
8632;SDS011;4354;49.832;10.746;2023-07-30T01:45:46;5.82;;;5.22;;
8632;SDS011;4354;49.832;10.746;2023-07-30T01:48:13;6.07;;;5.47;;
8632;SDS011;4354;49.832;10.746;2023-07-30T01:50:40;6.45;;;4.95;;
8632;SDS011;4354;49.832;10.746;2023-07-30T01:53:07;5.60;;;5.10;;
8632;SDS011;4354;49.832;10.746;2023-07-30T01:55:33;6.07;;;4.72;;
8632;SDS011;4354;49.832;10.746;2023-07-30T01:58:00;7.88;;;5.13;;
8632;SDS011;4354;49.832;10.746;2023-07-30T02:00:27;4.95;;;4.55;;
8632;SDS011;4354;49.832;10.746;2023-07-30T02:02:54;5.73;;;5.03;;
8632;SDS011;4354;49.832;10.746;2023-07-30T02:05:21;5.40;;;4.70;;
8632;SDS011;4354;49.832;10.746;2023-07-30T02:07:48;5.20;;;4.70;;
8632;SDS011;4354;49.832;10.746;2023-07-30T02:10:14;5.80;;;4.65;;
8632;SDS011;4354;49.832;10.746;2023-07-30T02:12:41;6.80;;;4.80;;
8632;SDS011;4354;49.832;10.746;2023-07-30T02:15:08;6.20;;;5.60;;
8632;SDS011;4354;49.832;10.746;2023-07-30T02:17:35;5.40;;;4.90;;
8632;SDS011;4354;49.832;10.746;2023-07-30T02:20:02;5.15;;;4.50;;
8632;SDS011;4354;49.832;10.746;2023-07-30T02:22:29;4.28;;;3.88;;
8632;SDS011;4354;49.832;10.746;2023-07-30T02:24:55;4.50;;;4.10;;
8632;SDS011;4354;49.832;10.746;2023-07-30T02:27:23;7.43;;;4.50;;
8632;SDS011;4354;49.832;10.746;2023-07-30T02:29:50;5.20;;;4.60;;
8632;SDS011;4354;49.832;10.746;2023-07-30T02:32:17;6.95;;;4.88;;
8632;SDS011;4354;49.832;10.746;2023-07-30T02:34:43;4.88;;;4.38;;
8632;SDS011;4354;49.832;10.746;2023-07-30T02:37:11;5.22;;;4.50;;
8632;SDS011;4354;49.832;10.746;2023-07-30T02:39:38;5.22;;;4.68;;
8632;SDS011;4354;49.832;10.746;2023-07-30T02:42:04;5.13;;;4.72;;
8632;SDS011;4354;49.832;10.746;2023-07-30T02:44:31;4.97;;;4.55;;
8632;SDS011;4354;49.832;10.746;2023-07-30T02:46:58;5.30;;;4.90;;
8632;SDS011;4354;49.832;10.746;2023-07-30T02:49:25;6.05;;;5.40;;
8632;SDS011;4354;49.832;10.746;2023-07-30T02:51:51;7.30;;;5.00;;
8632;SDS011;4354;49.832;10.746;2023-07-30T02:54:18;6.10;;;4.85;;
8632;SDS011;4354;49.832;10.746;2023-07-30T02:56:48;7.78;;;5.28;;
8632;SDS011;4354;49.832;10.746;2023-07-30T02:59:14;5.38;;;4.68;;
8632;SDS011;4354;49.832;10.746;2023-07-30T03:01:41;6.00;;;5.50;;
8632;SDS011;4354;49.832;10.746;2023-07-30T03:04:08;5.88;;;4.93;;
8632;SDS011;4354;49.832;10.746;2023-07-30T03:06:35;6.38;;;5.15;;
8632;SDS011;4354;49.832;10.746;2023-07-30T03:09:02;6.15;;;5.53;;
8632;SDS011;4354;49.832;10.746;2023-07-30T03:11:29;7.50;;;4.93;;
8632;SDS011;4354;49.832;10.746;2023-07-30T03:13:55;5.30;;;4.80;;
8632;SDS011;4354;49.832;10.746;2023-07-30T03:16:23;7.28;;;4.80;;
8632;SDS011;4354;49.832;10.746;2023-07-30T03:18:50;5.47;;;4.78;;
8632;SDS011;4354;49.832;10.746;2023-07-30T03:21:16;6.28;;;5.38;;
8632;SDS011;4354;49.832;10.746;2023-07-30T03:23:43;5.63;;;5.10;;
8632;SDS011;4354;49.832;10.746;2023-07-30T03:26:10;5.18;;;4.53;;
8632;SDS011;4354;49.832;10.746;2023-07-30T03:28:37;5.30;;;4.72;;
8632;SDS011;4354;49.832;10.746;2023-07-30T03:31:06;4.80;;;4.40;;
8632;SDS011;4354;49.832;10.746;2023-07-30T03:33:33;6.15;;;4.53;;
8632;SDS011;4354;49.832;10.746;2023-07-30T03:36:01;6.45;;;4.68;;
8632;SDS011;4354;49.832;10.746;2023-07-30T03:38:27;7.15;;;4.20;;
8632;SDS011;4354;49.832;10.746;2023-07-30T03:40:54;5.10;;;4.70;;
8632;SDS011;4354;49.832;10.746;2023-07-30T03:43:21;5.43;;;4.93;;
8632;SDS011;4354;49.832;10.746;2023-07-30T03:45:48;5.47;;;4.97;;
8632;SDS011;4354;49.832;10.746;2023-07-30T03:48:15;6.03;;;5.30;;
8632;SDS011;4354;49.832;10.746;2023-07-30T03:50:41;6.85;;;5.53;;
8632;SDS011;4354;49.832;10.746;2023-07-30T03:53:08;5.65;;;5.05;;
8632;SDS011;4354;49.832;10.746;2023-07-30T03:55:35;7.85;;;5.03;;
8632;SDS011;4354;49.832;10.746;2023-07-30T03:58:02;6.00;;;4.78;;
8632;SDS011;4354;49.832;10.746;2023-07-30T04:00:28;7.95;;;4.93;;
8632;SDS011;4354;49.832;10.746;2023-07-30T04:02:55;5.25;;;4.75;;
8632;SDS011;4354;49.832;10.746;2023-07-30T04:05:22;7.40;;;4.65;;
8632;SDS011;4354;49.832;10.746;2023-07-30T04:07:49;6.03;;;4.85;;
8632;SDS011;4354;49.832;10.746;2023-07-30T04:10:16;7.95;;;5.10;;
8632;SDS011;4354;49.832;10.746;2023-07-30T04:12:43;8.10;;;5.40;;
8632;SDS011;4354;49.832;10.746;2023-07-30T04:15:10;5.43;;;4.88;;
8632;SDS011;4354;49.832;10.746;2023-07-30T04:17:37;5.32;;;4.82;;
8632;SDS011;4354;49.832;10.746;2023-07-30T04:20:04;4.78;;;4.38;;
8632;SDS011;4354;49.832;10.746;2023-07-30T04:22:32;5.90;;;5.03;;
8632;SDS011;4354;49.832;10.746;2023-07-30T04:24:58;5.50;;;5.00;;
8632;SDS011;4354;49.832;10.746;2023-07-30T04:27:25;6.85;;;5.10;;
8632;SDS011;4354;49.832;10.746;2023-07-30T04:29:56;5.90;;;5.40;;
8632;SDS011;4354;49.832;10.746;2023-07-30T04:32:23;6.03;;;4.95;;
8632;SDS011;4354;49.832;10.746;2023-07-30T04:34:50;5.55;;;4.95;;
8632;SDS011;4354;49.832;10.746;2023-07-30T04:37:16;6.40;;;5.20;;
8632;SDS011;4354;49.832;10.746;2023-07-30T04:39:43;5.55;;;5.05;;
8632;SDS011;4354;49.832;10.746;2023-07-30T04:42:10;6.40;;;5.45;;
8632;SDS011;4354;49.832;10.746;2023-07-30T04:44:39;5.43;;;4.93;;
8632;SDS011;4354;49.832;10.746;2023-07-30T04:47:06;5.32;;;4.80;;
8632;SDS011;4354;49.832;10.746;2023-07-30T04:49:33;5.90;;;5.38;;
8632;SDS011;4354;49.832;10.746;2023-07-30T04:52:00;5.30;;;4.90;;
8632;SDS011;4354;49.832;10.746;2023-07-30T04:54:27;5.15;;;4.68;;
8632;SDS011;4354;49.832;10.746;2023-07-30T04:56:53;5.82;;;5.22;;
8632;SDS011;4354;49.832;10.746;2023-07-30T04:59:20;5.47;;;4.85;;
8632;SDS011;4354;49.832;10.746;2023-07-30T05:01:47;4.65;;;4.10;;
8632;SDS011;4354;49.832;10.746;2023-07-30T05:04:14;4.55;;;4.25;;
8632;SDS011;4354;49.832;10.746;2023-07-30T05:06:40;4.85;;;4.07;;
8632;SDS011;4354;49.832;10.746;2023-07-30T05:09:07;5.00;;;4.43;;
8632;SDS011;4354;49.832;10.746;2023-07-30T05:11:34;4.85;;;4.18;;
8632;SDS011;4354;49.832;10.746;2023-07-30T05:14:01;4.45;;;4.05;;
8632;SDS011;4354;49.832;10.746;2023-07-30T05:16:28;3.97;;;3.67;;
8632;SDS011;4354;49.832;10.746;2023-07-30T05:18:55;4.03;;;3.72;;
8632;SDS011;4354;49.832;10.746;2023-07-30T05:21:22;5.13;;;3.72;;
8632;SDS011;4354;49.832;10.746;2023-07-30T05:23:48;4.55;;;4.15;;
8632;SDS011;4354;49.832;10.746;2023-07-30T05:26:15;4.00;;;3.70;;
8632;SDS011;4354;49.832;10.746;2023-07-30T05:28:42;5.85;;;3.72;;
8632;SDS011;4354;49.832;10.746;2023-07-30T05:31:08;3.75;;;3.45;;
8632;SDS011;4354;49.832;10.746;2023-07-30T05:33:35;3.58;;;3.08;;
8632;SDS011;4354;49.832;10.746;2023-07-30T05:36:02;4.30;;;3.60;;
8632;SDS011;4354;49.832;10.746;2023-07-30T05:38:29;3.80;;;3.47;;
8632;SDS011;4354;49.832;10.746;2023-07-30T05:40:56;3.17;;;2.97;;
8632;SDS011;4354;49.832;10.746;2023-07-30T05:43:22;4.63;;;3.60;;
8632;SDS011;4354;49.832;10.746;2023-07-30T05:45:49;4.13;;;3.70;;
8632;SDS011;4354;49.832;10.746;2023-07-30T05:48:16;4.75;;;3.50;;
8632;SDS011;4354;49.832;10.746;2023-07-30T05:50:43;5.28;;;3.28;;
8632;SDS011;4354;49.832;10.746;2023-07-30T05:53:10;4.15;;;2.90;;
8632;SDS011;4354;49.832;10.746;2023-07-30T05:55:36;3.15;;;2.85;;
8632;SDS011;4354;49.832;10.746;2023-07-30T05:58:03;4.32;;;2.95;;
8632;SDS011;4354;49.832;10.746;2023-07-30T06:00:30;3.92;;;3.05;;
8632;SDS011;4354;49.832;10.746;2023-07-30T06:02:56;2.45;;;2.25;;
8632;SDS011;4354;49.832;10.746;2023-07-30T06:05:23;2.95;;;2.70;;
8632;SDS011;4354;49.832;10.746;2023-07-30T06:07:50;3.20;;;2.97;;
8632;SDS011;4354;49.832;10.746;2023-07-30T06:10:17;3.08;;;2.47;;
8632;SDS011;4354;49.832;10.746;2023-07-30T06:12:44;3.50;;;3.05;;
8632;SDS011;4354;49.832;10.746;2023-07-30T06:15:10;3.30;;;3.00;;
8632;SDS011;4354;49.832;10.746;2023-07-30T06:17:37;2.92;;;2.50;;
8632;SDS011;4354;49.832;10.746;2023-07-30T06:20:04;3.10;;;2.50;;
8632;SDS011;4354;49.832;10.746;2023-07-30T06:22:31;3.42;;;2.50;;
8632;SDS011;4354;49.832;10.746;2023-07-30T06:24:58;3.05;;;2.70;;
8632;SDS011;4354;49.832;10.746;2023-07-30T06:27:25;3.63;;;2.60;;
8632;SDS011;4354;49.832;10.746;2023-07-30T06:29:52;3.35;;;2.25;;
8632;SDS011;4354;49.832;10.746;2023-07-30T06:32:18;3.65;;;2.13;;
8632;SDS011;4354;49.832;10.746;2023-07-30T06:34:45;3.33;;;2.38;;
8632;SDS011;4354;49.832;10.746;2023-07-30T06:37:12;2.63;;;2.40;;
8632;SDS011;4354;49.832;10.746;2023-07-30T06:39:39;3.33;;;2.80;;
8632;SDS011;4354;49.832;10.746;2023-07-30T06:42:05;3.13;;;2.50;;
8632;SDS011;4354;49.832;10.746;2023-07-30T06:44:32;2.72;;;2.25;;
8632;SDS011;4354;49.832;10.746;2023-07-30T06:46:59;4.35;;;2.03;;
8632;SDS011;4354;49.832;10.746;2023-07-30T06:49:27;3.13;;;2.05;;
8632;SDS011;4354;49.832;10.746;2023-07-30T06:51:54;2.40;;;2.05;;
8632;SDS011;4354;49.832;10.746;2023-07-30T06:54:21;2.47;;;2.28;;
8632;SDS011;4354;49.832;10.746;2023-07-30T06:56:48;3.45;;;2.33;;
8632;SDS011;4354;49.832;10.746;2023-07-30T06:59:15;2.08;;;1.98;;
8632;SDS011;4354;49.832;10.746;2023-07-30T07:01:42;2.63;;;2.42;;
8632;SDS011;4354;49.832;10.746;2023-07-30T07:04:09;4.18;;;2.40;;
8632;SDS011;4354;49.832;10.746;2023-07-30T07:06:35;4.03;;;2.20;;
8632;SDS011;4354;49.832;10.746;2023-07-30T07:09:02;4.30;;;2.15;;
8632;SDS011;4354;49.832;10.746;2023-07-30T07:11:29;4.78;;;2.03;;
8632;SDS011;4354;49.832;10.746;2023-07-30T07:13:56;3.35;;;1.90;;
8632;SDS011;4354;49.832;10.746;2023-07-30T07:16:23;3.22;;;2.38;;
8632;SDS011;4354;49.832;10.746;2023-07-30T07:18:50;1.92;;;1.75;;
8632;SDS011;4354;49.832;10.746;2023-07-30T07:21:17;2.47;;;1.80;;
8632;SDS011;4354;49.832;10.746;2023-07-30T07:23:43;2.38;;;1.75;;
8632;SDS011;4354;49.832;10.746;2023-07-30T07:26:10;3.50;;;1.70;;
8632;SDS011;4354;49.832;10.746;2023-07-30T07:28:37;2.25;;;1.95;;
8632;SDS011;4354;49.832;10.746;2023-07-30T07:31:04;1.70;;;1.60;;
8632;SDS011;4354;49.832;10.746;2023-07-30T07:33:30;3.13;;;1.80;;
8632;SDS011;4354;49.832;10.746;2023-07-30T07:36:04;2.28;;;1.42;;
8632;SDS011;4354;49.832;10.746;2023-07-30T07:38:32;1.85;;;1.60;;
8632;SDS011;4354;49.832;10.746;2023-07-30T07:41:02;1.65;;;1.27;;
8632;SDS011;4354;49.832;10.746;2023-07-30T07:43:30;2.10;;;1.63;;
8632;SDS011;4354;49.832;10.746;2023-07-30T07:45:56;1.73;;;1.63;;
8632;SDS011;4354;49.832;10.746;2023-07-30T07:48:23;3.05;;;1.40;;
8632;SDS011;4354;49.832;10.746;2023-07-30T07:50:50;1.58;;;1.48;;
8632;SDS011;4354;49.832;10.746;2023-07-30T07:53:17;1.40;;;1.30;;
8632;SDS011;4354;49.832;10.746;2023-07-30T07:55:43;4.00;;;1.73;;
8632;SDS011;4354;49.832;10.746;2023-07-30T07:58:10;2.85;;;1.60;;
8632;SDS011;4354;49.832;10.746;2023-07-30T08:00:37;2.08;;;1.40;;
8632;SDS011;4354;49.832;10.746;2023-07-30T08:03:04;1.70;;;1.55;;
8632;SDS011;4354;49.832;10.746;2023-07-30T08:05:31;1.73;;;1.50;;
8632;SDS011;4354;49.832;10.746;2023-07-30T08:07:57;1.42;;;1.20;;
8632;SDS011;4354;49.832;10.746;2023-07-30T08:10:24;2.47;;;1.42;;
8632;SDS011;4354;49.832;10.746;2023-07-30T08:12:51;2.33;;;1.67;;
8632;SDS011;4354;49.832;10.746;2023-07-30T08:15:18;1.63;;;1.50;;
8632;SDS011;4354;49.832;10.746;2023-07-30T08:17:45;6.20;;;1.85;;
8632;SDS011;4354;49.832;10.746;2023-07-30T08:20:12;2.10;;;1.58;;
8632;SDS011;4354;49.832;10.746;2023-07-30T08:22:38;2.05;;;1.70;;
8632;SDS011;4354;49.832;10.746;2023-07-30T08:25:05;2.72;;;1.65;;
8632;SDS011;4354;49.832;10.746;2023-07-30T08:27:32;1.70;;;1.60;;
8632;SDS011;4354;49.832;10.746;2023-07-30T08:29:59;2.00;;;1.55;;
8632;SDS011;4354;49.832;10.746;2023-07-30T08:32:26;1.70;;;1.60;;
8632;SDS011;4354;49.832;10.746;2023-07-30T08:34:53;3.63;;;1.65;;
8632;SDS011;4354;49.832;10.746;2023-07-30T08:37:19;1.58;;;1.48;;
8632;SDS011;4354;49.832;10.746;2023-07-30T08:39:46;1.73;;;1.58;;
8632;SDS011;4354;49.832;10.746;2023-07-30T08:42:15;1.63;;;1.52;;
8632;SDS011;4354;49.832;10.746;2023-07-30T08:44:42;2.38;;;1.70;;
8632;SDS011;4354;49.832;10.746;2023-07-30T08:47:09;3.22;;;1.88;;
8632;SDS011;4354;49.832;10.746;2023-07-30T08:49:36;1.92;;;1.20;;
8632;SDS011;4354;49.832;10.746;2023-07-30T08:52:03;1.65;;;1.50;;
8632;SDS011;4354;49.832;10.746;2023-07-30T08:54:33;3.65;;;1.20;;
8632;SDS011;4354;49.832;10.746;2023-07-30T08:57:01;2.83;;;1.60;;
8632;SDS011;4354;49.832;10.746;2023-07-30T09:00:03;2.80;;;1.65;;
8632;SDS011;4354;49.832;10.746;2023-07-30T09:02:33;1.30;;;1.02;;
8632;SDS011;4354;49.832;10.746;2023-07-30T09:05:12;1.42;;;1.15;;
8632;SDS011;4354;49.832;10.746;2023-07-30T09:07:40;1.23;;;1.13;;
8632;SDS011;4354;49.832;10.746;2023-07-30T09:10:08;2.05;;;1.40;;
8632;SDS011;4354;49.832;10.746;2023-07-30T09:12:35;1.38;;;1.27;;
8632;SDS011;4354;49.832;10.746;2023-07-30T09:15:02;1.50;;;1.25;;
8632;SDS011;4354;49.832;10.746;2023-07-30T09:17:31;1.50;;;1.10;;
8632;SDS011;4354;49.832;10.746;2023-07-30T09:19:59;2.05;;;1.10;;
8632;SDS011;4354;49.832;10.746;2023-07-30T09:22:26;2.13;;;1.20;;
8632;SDS011;4354;49.832;10.746;2023-07-30T09:24:55;2.47;;;1.13;;
8632;SDS011;4354;49.832;10.746;2023-07-30T09:27:23;1.85;;;1.58;;
8632;SDS011;4354;49.832;10.746;2023-07-30T09:29:53;1.23;;;1.13;;
8632;SDS011;4354;49.832;10.746;2023-07-30T09:32:25;2.17;;;1.20;;
8632;SDS011;4354;49.832;10.746;2023-07-30T09:34:56;2.35;;;1.55;;
8632;SDS011;4354;49.832;10.746;2023-07-30T09:37:33;2.72;;;1.77;;
8632;SDS011;4354;49.832;10.746;2023-07-30T09:40:07;1.98;;;1.52;;
8632;SDS011;4354;49.832;10.746;2023-07-30T09:42:36;1.60;;;1.50;;
8632;SDS011;4354;49.832;10.746;2023-07-30T09:45:06;2.95;;;1.60;;
8632;SDS011;4354;49.832;10.746;2023-07-30T09:47:37;2.60;;;1.60;;
8632;SDS011;4354;49.832;10.746;2023-07-30T09:50:04;2.00;;;1.60;;
8632;SDS011;4354;49.832;10.746;2023-07-30T09:52:31;4.13;;;1.38;;
8632;SDS011;4354;49.832;10.746;2023-07-30T09:54:58;1.55;;;1.45;;
8632;SDS011;4354;49.832;10.746;2023-07-30T09:57:26;2.80;;;1.25;;
8632;SDS011;4354;49.832;10.746;2023-07-30T09:59:53;1.70;;;1.10;;
8632;SDS011;4354;49.832;10.746;2023-07-30T10:02:20;2.85;;;1.50;;
8632;SDS011;4354;49.832;10.746;2023-07-30T10:04:48;2.00;;;1.20;;
8632;SDS011;4354;49.832;10.746;2023-07-30T10:07:18;1.48;;;1.38;;
8632;SDS011;4354;49.832;10.746;2023-07-30T10:09:48;1.60;;;1.50;;
8632;SDS011;4354;49.832;10.746;2023-07-30T10:12:23;1.40;;;1.20;;
8632;SDS011;4354;49.832;10.746;2023-07-30T10:14:53;1.67;;;1.13;;
8632;SDS011;4354;49.832;10.746;2023-07-30T10:17:20;1.67;;;1.25;;
8632;SDS011;4354;49.832;10.746;2023-07-30T10:19:47;1.10;;;1.00;;
8632;SDS011;4354;49.832;10.746;2023-07-30T10:24:55;3.15;;;1.30;;
8632;SDS011;4354;49.832;10.746;2023-07-30T10:27:26;1.85;;;1.20;;
8632;SDS011;4354;49.832;10.746;2023-07-30T10:35:38;1.25;;;0.98;;
8632;SDS011;4354;49.832;10.746;2023-07-30T10:43:36;3.53;;;1.20;;
8632;SDS011;4354;49.832;10.746;2023-07-30T10:46:07;2.60;;;1.33;;
8632;SDS011;4354;49.832;10.746;2023-07-30T10:48:36;1.50;;;1.30;;
8632;SDS011;4354;49.832;10.746;2023-07-30T10:51:05;1.38;;;1.27;;
8632;SDS011;4354;49.832;10.746;2023-07-30T10:53:34;2.80;;;1.45;;
8632;SDS011;4354;49.832;10.746;2023-07-30T10:56:03;1.52;;;1.27;;
8632;SDS011;4354;49.832;10.746;2023-07-30T10:58:31;1.50;;;1.27;;
8632;SDS011;4354;49.832;10.746;2023-07-30T11:00:59;2.28;;;1.15;;
8632;SDS011;4354;49.832;10.746;2023-07-30T11:03:29;1.42;;;1.33;;
8632;SDS011;4354;49.832;10.746;2023-07-30T11:05:58;1.38;;;1.10;;
8632;SDS011;4354;49.832;10.746;2023-07-30T11:08:37;1.45;;;1.33;;
8632;SDS011;4354;49.832;10.746;2023-07-30T11:11:06;2.30;;;1.30;;
8632;SDS011;4354;49.832;10.746;2023-07-30T11:13:35;2.10;;;1.10;;
8632;SDS011;4354;49.832;10.746;2023-07-30T11:16:09;6.05;;;1.20;;
8632;SDS011;4354;49.832;10.746;2023-07-30T11:18:37;2.78;;;1.20;;
8632;SDS011;4354;49.832;10.746;2023-07-30T11:21:11;1.33;;;1.23;;
8632;SDS011;4354;49.832;10.746;2023-07-30T11:23:39;1.20;;;1.10;;
8632;SDS011;4354;49.832;10.746;2023-07-30T11:26:17;1.95;;;1.40;;
8632;SDS011;4354;49.832;10.746;2023-07-30T11:28:45;2.33;;;1.40;;
8632;SDS011;4354;49.832;10.746;2023-07-30T11:31:14;2.15;;;1.20;;
8632;SDS011;4354;49.832;10.746;2023-07-30T11:33:44;1.42;;;1.27;;
8632;SDS011;4354;49.832;10.746;2023-07-30T11:36:16;1.45;;;1.15;;
8632;SDS011;4354;49.832;10.746;2023-07-30T11:38:48;2.88;;;1.35;;
8632;SDS011;4354;49.832;10.746;2023-07-30T11:41:15;1.35;;;1.23;;
8632;SDS011;4354;49.832;10.746;2023-07-30T11:43:43;1.40;;;1.30;;
8632;SDS011;4354;49.832;10.746;2023-07-30T11:46:11;1.00;;;0.98;;
8632;SDS011;4354;49.832;10.746;2023-07-30T11:48:44;1.70;;;1.33;;
8632;SDS011;4354;49.832;10.746;2023-07-30T11:51:19;1.50;;;1.40;;
8632;SDS011;4354;49.832;10.746;2023-07-30T11:53:56;1.67;;;1.57;;
8632;SDS011;4354;49.832;10.746;2023-07-30T11:56:24;1.45;;;1.35;;
8632;SDS011;4354;49.832;10.746;2023-07-30T11:58:54;1.52;;;1.42;;
8632;SDS011;4354;49.832;10.746;2023-07-30T12:01:23;1.50;;;1.40;;
8632;SDS011;4354;49.832;10.746;2023-07-30T12:03:58;1.73;;;1.60;;
8632;SDS011;4354;49.832;10.746;2023-07-30T12:06:39;1.30;;;1.20;;
8632;SDS011;4354;49.832;10.746;2023-07-30T12:09:09;2.17;;;1.45;;
8632;SDS011;4354;49.832;10.746;2023-07-30T12:11:59;1.75;;;1.65;;
8632;SDS011;4354;49.832;10.746;2023-07-30T12:14:28;1.88;;;1.40;;
8632;SDS011;4354;49.832;10.746;2023-07-30T12:17:09;1.63;;;1.30;;
8632;SDS011;4354;49.832;10.746;2023-07-30T12:19:36;2.00;;;1.55;;
8632;SDS011;4354;49.832;10.746;2023-07-30T12:22:03;2.88;;;1.65;;
8632;SDS011;4354;49.832;10.746;2023-07-30T12:24:30;1.52;;;1.40;;
8632;SDS011;4354;49.832;10.746;2023-07-30T12:26:56;2.95;;;1.90;;
8632;SDS011;4354;49.832;10.746;2023-07-30T12:29:24;2.88;;;1.65;;
8632;SDS011;4354;49.832;10.746;2023-07-30T12:31:51;2.60;;;1.80;;
8632;SDS011;4354;49.832;10.746;2023-07-30T12:34:20;3.50;;;1.88;;
8632;SDS011;4354;49.832;10.746;2023-07-30T12:36:46;3.97;;;1.80;;
8632;SDS011;4354;49.832;10.746;2023-07-30T12:39:13;3.70;;;1.83;;
8632;SDS011;4354;49.832;10.746;2023-07-30T12:41:40;7.03;;;2.20;;
8632;SDS011;4354;49.832;10.746;2023-07-30T12:44:07;3.67;;;1.80;;
8632;SDS011;4354;49.832;10.746;2023-07-30T12:46:35;3.90;;;1.90;;
8632;SDS011;4354;49.832;10.746;2023-07-30T12:49:02;1.77;;;1.40;;
8632;SDS011;4354;49.832;10.746;2023-07-30T12:51:30;1.60;;;1.50;;
8632;SDS011;4354;49.832;10.746;2023-07-30T12:53:58;3.05;;;1.60;;
8632;SDS011;4354;49.832;10.746;2023-07-30T12:56:25;4.10;;;1.70;;
8632;SDS011;4354;49.832;10.746;2023-07-30T12:58:52;1.63;;;1.52;;
8632;SDS011;4354;49.832;10.746;2023-07-30T13:01:19;2.38;;;1.25;;
8632;SDS011;4354;49.832;10.746;2023-07-30T13:03:45;1.80;;;1.23;;
8632;SDS011;4354;49.832;10.746;2023-07-30T13:06:13;3.35;;;1.10;;
8632;SDS011;4354;49.832;10.746;2023-07-30T13:08:40;2.38;;;1.17;;
8632;SDS011;4354;49.832;10.746;2023-07-30T13:11:07;1.40;;;1.30;;
8632;SDS011;4354;49.832;10.746;2023-07-30T13:13:34;1.60;;;1.27;;
8632;SDS011;4354;49.832;10.746;2023-07-30T13:16:00;1.30;;;1.20;;
8632;SDS011;4354;49.832;10.746;2023-07-30T13:18:28;1.75;;;1.20;;
8632;SDS011;4354;49.832;10.746;2023-07-30T13:20:55;1.13;;;0.88;;
8632;SDS011;4354;49.832;10.746;2023-07-30T13:23:22;1.83;;;1.20;;
8632;SDS011;4354;49.832;10.746;2023-07-30T13:25:51;1.88;;;1.25;;
8632;SDS011;4354;49.832;10.746;2023-07-30T13:28:18;4.10;;;1.00;;
8632;SDS011;4354;49.832;10.746;2023-07-30T13:30:45;2.15;;;1.00;;
8632;SDS011;4354;49.832;10.746;2023-07-30T13:33:12;1.90;;;1.13;;
8632;SDS011;4354;49.832;10.746;2023-07-30T13:35:38;1.45;;;0.88;;
8632;SDS011;4354;49.832;10.746;2023-07-30T13:38:05;1.23;;;1.10;;
8632;SDS011;4354;49.832;10.746;2023-07-30T13:40:32;2.78;;;1.00;;
8632;SDS011;4354;49.832;10.746;2023-07-30T13:42:59;2.03;;;1.00;;
8632;SDS011;4354;49.832;10.746;2023-07-30T13:45:25;1.90;;;1.15;;
8632;SDS011;4354;49.832;10.746;2023-07-30T13:47:52;1.00;;;0.90;;
8632;SDS011;4354;49.832;10.746;2023-07-30T13:50:19;2.65;;;0.90;;
8632;SDS011;4354;49.832;10.746;2023-07-30T13:52:46;1.33;;;1.00;;
8632;SDS011;4354;49.832;10.746;2023-07-30T13:55:13;3.55;;;1.00;;
8632;SDS011;4354;49.832;10.746;2023-07-30T13:57:39;0.98;;;0.88;;
8632;SDS011;4354;49.832;10.746;2023-07-30T14:00:07;0.98;;;0.88;;
8632;SDS011;4354;49.832;10.746;2023-07-30T14:02:34;0.90;;;0.80;;
8632;SDS011;4354;49.832;10.746;2023-07-30T14:05:01;1.73;;;1.10;;
8632;SDS011;4354;49.832;10.746;2023-07-30T14:07:28;1.52;;;1.10;;
8632;SDS011;4354;49.832;10.746;2023-07-30T14:09:55;2.65;;;1.00;;
8632;SDS011;4354;49.832;10.746;2023-07-30T14:12:22;2.80;;;0.82;;
8632;SDS011;4354;49.832;10.746;2023-07-30T14:14:49;1.48;;;1.15;;
8632;SDS011;4354;49.832;10.746;2023-07-30T14:17:16;4.00;;;1.30;;
8632;SDS011;4354;49.832;10.746;2023-07-30T14:19:43;1.65;;;0.90;;
8632;SDS011;4354;49.832;10.746;2023-07-30T14:22:09;1.65;;;1.10;;
8632;SDS011;4354;49.832;10.746;2023-07-30T14:24:36;1.60;;;0.73;;
8632;SDS011;4354;49.832;10.746;2023-07-30T14:27:04;2.33;;;0.90;;
8632;SDS011;4354;49.832;10.746;2023-07-30T14:29:31;2.47;;;1.00;;
8632;SDS011;4354;49.832;10.746;2023-07-30T14:31:58;2.40;;;1.45;;
8632;SDS011;4354;49.832;10.746;2023-07-30T14:34:25;2.45;;;1.00;;
8632;SDS011;4354;49.832;10.746;2023-07-30T14:36:52;3.35;;;1.10;;
8632;SDS011;4354;49.832;10.746;2023-07-30T14:39:19;3.13;;;1.08;;
8632;SDS011;4354;49.832;10.746;2023-07-30T14:41:48;3.72;;;1.23;;
8632;SDS011;4354;49.832;10.746;2023-07-30T14:44:15;3.00;;;1.33;;
8632;SDS011;4354;49.832;10.746;2023-07-30T14:46:43;3.05;;;1.25;;
8632;SDS011;4354;49.832;10.746;2023-07-30T14:49:10;2.22;;;1.40;;
8632;SDS011;4354;49.832;10.746;2023-07-30T14:51:37;3.30;;;1.20;;
8632;SDS011;4354;49.832;10.746;2023-07-30T14:54:04;4.45;;;1.38;;
8632;SDS011;4354;49.832;10.746;2023-07-30T14:56:31;2.30;;;1.42;;
8632;SDS011;4354;49.832;10.746;2023-07-30T14:58:58;3.55;;;1.20;;
8632;SDS011;4354;49.832;10.746;2023-07-30T15:01:27;1.95;;;1.38;;
8632;SDS011;4354;49.832;10.746;2023-07-30T15:03:55;3.10;;;1.00;;
8632;SDS011;4354;49.832;10.746;2023-07-30T15:06:23;1.85;;;1.20;;
8632;SDS011;4354;49.832;10.746;2023-07-30T15:08:52;5.22;;;1.30;;
8632;SDS011;4354;49.832;10.746;2023-07-30T15:11:19;4.00;;;1.67;;
8632;SDS011;4354;49.832;10.746;2023-07-30T15:13:45;2.80;;;1.40;;
8632;SDS011;4354;49.832;10.746;2023-07-30T15:16:12;3.58;;;1.50;;
8632;SDS011;4354;49.832;10.746;2023-07-30T15:18:41;3.45;;;1.60;;
8632;SDS011;4354;49.832;10.746;2023-07-30T15:21:14;2.35;;;1.35;;